Time;durP1;ratioP1;P1;durP2;ratioP2;P2;SDS_P1;SDS_P2;PMS_P1;PMS_P2;Temp;Humidity;BMP_temperature;BMP_pressure;BME280_temperature;BME280_humidity;BME280_pressure;Samples;Min_cycle;Max_cycle;Signal;HPM_P1;HPM_P2
2022/09/19 00:01:15;;;;;;;3.10;1.70;;;17.00;55.60;;;;;;4887840;29;20218;-36
2022/09/19 00:03:47;;;;;;;2.47;1.73;;;17.00;55.60;;;;;;4878181;29;20207;-36
2022/09/19 00:06:19;;;;;;;1.77;1.35;;;17.10;55.60;;;;;;4890826;29;20213;-40
2022/09/19 00:08:49;;;;;;;2.30;1.77;;;17.10;55.70;;;;;;4897126;29;20311;-43
2022/09/19 00:11:23;;;;;;;2.00;1.60;;;17.10;55.70;;;;;;4888284;29;20209;-35
2022/09/19 00:13:56;;;;;;;2.10;1.58;;;17.10;55.60;;;;;;4877527;29;20215;-45
2022/09/19 00:16:28;;;;;;;1.60;1.40;;;17.20;55.70;;;;;;4891980;29;20197;-44
2022/09/19 00:19:00;;;;;;;1.98;1.50;;;17.20;55.70;;;;;;4895714;29;20256;-36
2022/09/19 00:21:32;;;;;;;2.40;1.85;;;17.30;55.70;;;;;;4891443;29;20594;-35
2022/09/19 00:26:55;;;;;;;1.80;1.35;;;17.30;56.00;;;;;;4893803;29;20207;-36
2022/09/19 00:29:27;;;;;;;1.60;1.40;;;17.40;56.10;;;;;;4895801;29;20220;-36
2022/09/19 00:31:58;;;;;;;2.05;1.50;;;17.40;56.00;;;;;;4881783;29;20212;-35
2022/09/19 00:34:28;;;;;;;2.65;1.70;;;17.50;56.00;;;;;;4876841;29;20650;-36
2022/09/19 00:36:59;;;;;;;2.40;1.42;;;17.50;56.00;;;;;;4894927;29;20224;-36
2022/09/19 00:39:30;;;;;;;1.55;1.42;;;17.50;55.90;;;;;;4895624;29;20196;-36
2022/09/19 00:42:02;;;;;;;1.90;1.63;;;17.60;56.00;;;;;;4894321;29;20239;-38
2022/09/19 00:44:57;;;;;;;1.75;1.40;;;17.60;56.00;;;;;;4895347;29;20197;-45
2022/09/19 00:47:38;;;;;;;1.98;1.52;;;17.70;56.10;;;;;;4895587;29;20221;-36
2022/09/19 00:50:21;;;;;;;2.30;1.10;;;17.70;55.90;;;;;;4895689;29;20208;-36
2022/09/19 00:52:56;;;;;;;2.38;1.50;;;17.70;55.90;;;;;;4895277;29;20287;-38
2022/09/19 00:55:27;;;;;;;1.60;1.27;;;17.80;55.90;;;;;;4895177;29;20192;-36
2022/09/19 00:58:14;;;;;;;1.20;1.08;;;17.80;55.90;;;;;;4894653;29;20221;-35
2022/09/19 01:00:45;;;;;;;1.42;0.95;;;17.90;56.60;;;;;;4895382;29;20697;-42
2022/09/19 01:03:17;;;;;;;1.80;1.20;;;17.90;56.00;;;;;;4896256;29;20833;-39
2022/09/19 01:06:08;;;;;;;1.20;1.00;;;17.90;56.10;;;;;;4895843;29;20676;-36
2022/09/19 01:08:59;;;;;;;1.35;1.17;;;18.00;56.00;;;;;;4895804;29;20221;-40
2022/09/19 01:11:49;;;;;;;1.10;1.00;;;18.00;56.00;;;;;;4882789;29;20197;-36
2022/09/19 01:14:34;;;;;;;2.08;0.93;;;18.10;56.00;;;;;;4877163;29;20216;-36
2022/09/19 01:17:08;;;;;;;1.10;1.00;;;18.10;55.90;;;;;;4892784;29;20220;-39
2022/09/19 01:20:14;;;;;;;1.13;1.02;;;18.20;55.90;;;;;;4895470;29;20196;-36
2022/09/19 01:22:55;;;;;;;1.80;1.30;;;18.20;55.90;;;;;;4843491;29;20288;-37
2022/09/19 01:25:31;;;;;;;1.00;0.90;;;18.20;55.90;;;;;;4895306;29;20196;-36
2022/09/19 01:28:18;;;;;;;1.08;0.98;;;18.30;55.90;;;;;;4895847;29;20228;-43
2022/09/19 01:31:17;;;;;;;0.77;0.77;;;18.30;55.80;;;;;;4895057;29;20203;-36
2022/09/19 01:33:53;;;;;;;1.00;0.90;;;18.40;55.90;;;;;;4895683;29;20291;-35
2022/09/19 01:36:31;;;;;;;1.00;0.90;;;18.40;55.80;;;;;;4895372;29;20232;-36
2022/09/19 01:39:03;;;;;;;0.95;0.90;;;18.50;55.80;;;;;;4895767;29;20207;-36
2022/09/19 01:41:34;;;;;;;0.90;0.80;;;18.50;55.80;;;;;;4890047;29;20228;-36
2022/09/19 01:44:17;;;;;;;1.13;0.85;;;18.50;55.80;;;;;;4894997;29;20204;-36
2022/09/19 01:46:59;;;;;;;0.95;0.90;;;18.60;55.70;;;;;;4894755;29;20200;-38
2022/09/19 01:49:50;;;;;;;0.70;0.70;;;18.60;55.60;;;;;;4895562;29;20684;-35
2022/09/19 01:52:34;;;;;;;1.02;0.90;;;18.60;55.50;;;;;;4873890;29;20562;-35
2022/09/19 01:55:16;;;;;;;0.52;0.52;;;18.70;55.40;;;;;;4858100;29;20212;-39
2022/09/19 01:57:53;;;;;;;1.20;0.82;;;18.70;55.30;;;;;;4895098;29;20221;-36
2022/09/19 02:00:29;;;;;;;0.70;0.68;;;18.80;55.30;;;;;;4879639;29;20201;-35
2022/09/19 02:03:09;;;;;;;1.75;0.60;;;18.80;55.30;;;;;;4894954;29;20204;-46
2022/09/19 02:05:49;;;;;;;0.60;0.60;;;18.80;55.30;;;;;;4895409;29;20215;-39
2022/09/19 02:08:28;;;;;;;1.17;0.80;;;18.90;55.30;;;;;;4895371;29;20221;-43
2022/09/19 02:11:03;;;;;;;0.57;0.57;;;18.90;55.20;;;;;;4891764;29;20197;-41
2022/09/19 02:13:36;;;;;;;1.30;0.65;;;19.00;55.20;;;;;;4898388;29;20290;-42
2022/09/19 02:16:12;;;;;;;0.50;0.50;;;19.00;55.10;;;;;;4889568;29;20578;-36
2022/09/19 02:18:48;;;;;;;1.02;0.77;;;19.10;55.10;;;;;;4898294;29;20579;-39
2022/09/19 02:21:23;;;;;;;0.70;0.55;;;19.10;54.90;;;;;;4898061;29;20316;-43
2022/09/19 02:24:05;;;;;;;0.80;0.50;;;19.10;54.80;;;;;;4898177;29;20240;-38
2022/09/19 02:26:39;;;;;;;0.40;0.40;;;19.20;54.80;;;;;;4897326;29;20199;-36
2022/09/19 02:29:12;;;;;;;0.57;0.57;;;19.20;54.60;;;;;;4899047;29;20846;-36
2022/09/19 02:31:46;;;;;;;0.82;0.60;;;19.30;54.60;;;;;;4898449;29;20205;-38
2022/09/19 02:34:17;;;;;;;0.85;0.55;;;19.30;54.60;;;;;;4892684;29;20266;-36
2022/09/19 02:36:52;;;;;;;1.33;0.60;;;19.40;54.50;;;;;;4888367;29;20580;-36
2022/09/19 02:39:27;;;;;;;1.38;0.55;;;19.40;54.40;;;;;;4898120;29;20272;-40
2022/09/19 02:42:04;;;;;;;1.02;0.70;;;19.40;54.40;;;;;;4881740;29;20263;-42
2022/09/19 02:44:42;;;;;;;0.70;0.70;;;19.50;54.30;;;;;;4897975;29;20228;-36
2022/09/19 02:47:21;;;;;;;0.60;0.60;;;19.60;54.30;;;;;;4897443;29;20220;-36
2022/09/19 02:49:56;;;;;;;3.33;0.90;;;19.60;54.10;;;;;;4898349;29;20240;-35
2022/09/19 02:52:30;;;;;;;0.73;0.60;;;19.60;54.10;;;;;;4897732;29;20204;-38
2022/09/19 02:55:08;;;;;;;1.13;0.65;;;19.70;54.00;;;;;;4897876;29;20667;-36
2022/09/19 02:57:39;;;;;;;1.33;0.43;;;19.70;52.90;;;;;;4897136;29;20212;-42
2022/09/19 03:00:12;;;;;;;1.63;0.60;;;19.80;52.00;;;;;;4898095;29;20669;-38
2022/09/19 03:02:54;;;;;;;1.20;0.43;;;19.80;51.60;;;;;;4897790;29;20231;-36
2022/09/19 03:05:26;;;;;;;2.15;0.50;;;19.90;51.30;;;;;;4896477;29;20260;-41
2022/09/19 03:08:02;;;;;;;1.10;0.50;;;20.00;51.40;;;;;;4897578;29;20217;-48
2022/09/19 03:10:35;;;;;;;2.08;0.50;;;20.00;51.30;;;;;;4888913;29;20209;-36
2022/09/19 03:13:08;;;;;;;2.45;0.60;;;20.10;51.50;;;;;;4896636;29;20205;-36
2022/09/19 03:15:43;;;;;;;1.15;0.60;;;20.10;51.50;;;;;;4896147;29;20208;-44
2022/09/19 03:18:18;;;;;;;0.43;0.40;;;20.20;51.50;;;;;;4896883;29;20235;-40
2022/09/19 03:20:51;;;;;;;3.10;0.75;;;20.20;51.50;;;;;;4896513;29;20208;-45
2022/09/19 03:23:25;;;;;;;0.65;0.40;;;20.30;51.60;;;;;;4884940;29;20210;-36
2022/09/19 03:25:56;;;;;;;0.93;0.50;;;20.30;51.50;;;;;;4875743;29;20229;-36
2022/09/19 03:28:27;;;;;;;0.50;0.40;;;20.40;51.50;;;;;;4896952;29;20307;-46
2022/09/19 03:30:59;;;;;;;0.68;0.68;;;20.40;51.70;;;;;;4896448;29;20568;-39
2022/09/19 03:33:31;;;;;;;0.95;0.35;;;20.40;51.50;;;;;;4897640;29;20549;-45
2022/09/19 03:36:07;;;;;;;0.57;0.50;;;20.50;51.40;;;;;;4896791;29;20584;-42
2022/09/19 03:38:39;;;;;;;0.82;0.40;;;20.50;51.40;;;;;;4896780;29;20280;-42
2022/09/19 03:41:10;;;;;;;0.73;0.38;;;20.60;51.30;;;;;;4885213;29;20773;-43
2022/09/19 03:43:42;;;;;;;1.38;0.60;;;20.60;51.30;;;;;;4896453;29;20205;-43
2022/09/19 03:46:13;;;;;;;0.63;0.40;;;20.70;51.40;;;;;;4896869;29;20249;-44
2022/09/19 03:48:46;;;;;;;0.98;0.43;;;20.70;51.40;;;;;;4896599;29;20583;-40
2022/09/19 03:51:18;;;;;;;0.88;0.50;;;20.70;51.30;;;;;;4897240;29;20214;-36
2022/09/19 03:53:48;;;;;;;0.40;0.40;;;20.80;51.40;;;;;;4889361;29;20194;-45
2022/09/19 03:56:20;;;;;;;0.50;0.38;;;20.80;51.30;;;;;;4879494;29;20216;-49
2022/09/19 03:58:51;;;;;;;0.75;0.40;;;20.90;51.30;;;;;;4896762;29;20225;-39
2022/09/19 04:01:25;;;;;;;0.40;0.40;;;20.90;51.30;;;;;;4896875;29;20217;-37
2022/09/19 04:03:58;;;;;;;0.50;0.47;;;20.90;51.30;;;;;;4896522;29;20527;-37
2022/09/19 04:06:29;;;;;;;0.80;0.50;;;21.00;51.40;;;;;;4896404;29;20577;-39
2022/09/19 04:08:59;;;;;;;0.85;0.50;;;21.00;51.20;;;;;;4895868;29;20225;-38
2022/09/19 04:11:30;;;;;;;1.48;0.40;;;21.10;51.30;;;;;;4882348;29;20383;-40
2022/09/19 04:14:01;;;;;;;0.40;0.40;;;21.10;51.10;;;;;;4879073;29;20197;-41
2022/09/19 04:16:32;;;;;;;0.75;0.32;;;21.10;51.10;;;;;;4879293;29;20201;-40
2022/09/19 04:19:10;;;;;;;0.65;0.50;;;21.20;51.20;;;;;;4896743;29;20227;-39
2022/09/19 04:21:41;;;;;;;0.75;0.30;;;21.20;51.10;;;;;;4896313;29;20225;-49
2022/09/19 04:24:12;;;;;;;0.57;0.40;;;21.20;51.20;;;;;;4896856;29;20245;-42
2022/09/19 04:26:44;;;;;;;0.50;0.40;;;21.20;51.10;;;;;;4895863;29;20200;-41
2022/09/19 04:29:15;;;;;;;0.68;0.40;;;21.20;51.20;;;;;;4896340;29;20249;-43
2022/09/19 04:31:45;;;;;;;0.77;0.50;;;21.30;51.30;;;;;;4894839;29;20666;-37
2022/09/19 04:34:18;;;;;;;0.57;0.40;;;21.30;51.30;;;;;;4883964;29;20838;-42
2022/09/19 04:36:50;;;;;;;0.80;0.40;;;21.30;51.20;;;;;;4880175;29;20203;-46
2022/09/19 04:39:21;;;;;;;0.40;0.40;;;21.30;51.10;;;;;;4896023;29;20205;-40
2022/09/19 04:41:53;;;;;;;0.30;0.30;;;21.30;51.00;;;;;;4881979;29;20228;-37
2022/09/19 04:44:28;;;;;;;0.38;0.30;;;21.30;50.80;;;;;;4895744;29;20291;-37
2022/09/19 04:46:59;;;;;;;1.95;0.40;;;21.40;50.70;;;;;;4896141;29;20795;-43
2022/09/19 04:49:39;;;;;;;0.40;0.40;;;21.30;50.60;;;;;;4895659;29;20201;-38
2022/09/19 04:52:12;;;;;;;1.15;0.50;;;21.30;50.60;;;;;;4895642;29;20197;-45
2022/09/19 04:54:45;;;;;;;0.55;0.45;;;21.40;50.70;;;;;;4895522;29;20208;-46
2022/09/19 04:57:15;;;;;;;0.50;0.30;;;21.30;50.50;;;;;;4895655;29;20252;-47
2022/09/19 04:59:46;;;;;;;0.40;0.40;;;21.30;50.40;;;;;;4895684;29;20201;-47
2022/09/19 05:02:18;;;;;;;0.40;0.40;;;21.30;50.50;;;;;;4895326;29;20228;-37
2022/09/19 05:04:51;;;;;;;1.02;0.40;;;21.30;50.50;;;;;;4895801;29;20744;-41
2022/09/19 05:07:33;;;;;;;0.20;0.20;;;21.30;50.60;;;;;;4894277;29;20217;-42
2022/09/19 05:10:04;;;;;;;0.30;0.30;;;21.30;50.70;;;;;;4890955;29;20209;-39
2022/09/19 05:12:35;;;;;;;0.80;0.40;;;21.30;50.60;;;;;;4884597;29;20212;-49
2022/09/19 05:15:05;;;;;;;1.77;0.40;;;21.30;50.60;;;;;;4895642;29;20662;-49
2022/09/19 05:17:37;;;;;;;1.15;0.43;;;21.30;50.50;;;;;;4894357;29;20216;-40
2022/09/19 05:20:10;;;;;;;0.88;0.47;;;21.30;50.50;;;;;;4895054;29;20200;-48
2022/09/19 05:22:41;;;;;;;0.73;0.30;;;21.30;50.50;;;;;;4895325;29;20232;-37
2022/09/19 05:25:15;;;;;;;0.30;0.30;;;21.30;50.60;;;;;;4895869;29;20197;-43
2022/09/19 05:27:45;;;;;;;0.52;0.40;;;21.30;50.50;;;;;;4895166;29;20221;-45
2022/09/19 05:30:16;;;;;;;0.55;0.40;;;21.30;50.70;;;;;;4895504;29;20213;-44
2022/09/19 05:32:47;;;;;;;0.50;0.50;;;21.30;50.80;;;;;;4895636;29;20216;-40
2022/09/19 05:35:20;;;;;;;0.65;0.50;;;21.20;50.90;;;;;;4895018;29;20222;-41
2022/09/19 05:37:51;;;;;;;0.40;0.40;;;21.30;50.90;;;;;;4895180;29;20696;-46
2022/09/19 05:40:22;;;;;;;1.77;0.95;;;21.30;50.90;;;;;;4888701;29;20209;-36
2022/09/19 05:42:59;;;;;;;2.00;1.50;;;21.30;50.80;;;;;;4885349;29;20225;-44
2022/09/19 05:45:31;;;;;;;1.60;1.30;;;21.30;50.60;;;;;;4898087;29;20207;-46
2022/09/19 05:48:05;;;;;;;1.70;1.40;;;21.30;50.60;;;;;;4896353;29;20209;-37
2022/09/19 05:50:38;;;;;;;1.60;1.50;;;21.30;50.50;;;;;;4878240;29;20193;-43
2022/09/19 05:55:56;;;;;;;3.20;1.30;;;21.30;50.40;;;;;;4898598;29;20204;-38
2022/09/19 05:58:27;;;;;;;1.63;1.40;;;21.30;50.30;;;;;;4897235;29;20221;-47
2022/09/19 06:00:57;;;;;;;1.92;1.35;;;21.30;50.30;;;;;;4898459;29;20205;-51
2022/09/19 06:03:28;;;;;;;1.60;1.30;;;21.20;50.30;;;;;;4898417;29;20221;-46
2022/09/19 06:06:01;;;;;;;1.92;1.20;;;21.20;50.50;;;;;;4898807;29;20205;-43
2022/09/19 06:08:32;;;;;;;1.30;1.20;;;21.20;50.50;;;;;;4893874;29;20582;-40
2022/09/19 06:11:04;;;;;;;1.50;1.40;;;21.30;50.50;;;;;;4875206;29;20233;-49
2022/09/19 06:16:19;;;;;;;1.35;1.10;;;21.20;50.60;;;;;;4857630;29;20206;-49
2022/09/19 06:18:50;;;;;;;3.00;1.40;;;21.20;50.50;;;;;;4898347;29;20987;-47
2022/09/19 06:21:23;;;;;;;2.10;1.92;;;21.20;50.50;;;;;;4898575;29;20645;-48
2022/09/19 06:23:53;;;;;;;5.30;3.40;;;21.20;50.40;;;;;;4897798;29;20689;-47
2022/09/19 06:26:26;;;;;;;4.25;2.50;;;21.20;50.50;;;;;;4897621;29;20200;-54
2022/09/19 06:28:56;;;;;;;5.70;2.85;;;21.20;50.60;;;;;;4898113;29;20225;-38
2022/09/19 06:31:27;;;;;;;4.65;2.83;;;21.20;50.60;;;;;;4897950;29;20209;-42
2022/09/19 06:33:58;;;;;;;5.30;2.10;;;21.20;50.70;;;;;;4897919;29;20196;-39
2022/09/19 06:36:30;;;;;;;3.25;2.22;;;21.10;50.70;;;;;;4886458;29;20212;-46
2022/09/19 06:39:01;;;;;;;3.92;2.17;;;21.10;50.70;;;;;;4894239;29;20213;-45
2022/09/19 06:41:32;;;;;;;3.38;2.35;;;21.10;50.80;;;;;;4881504;29;20551;-37
2022/09/19 06:44:03;;;;;;;5.10;2.10;;;21.10;50.80;;;;;;4893200;29;20316;-39
2022/09/19 06:46:37;;;;;;;3.15;1.95;;;21.10;50.90;;;;;;4898081;29;20201;-38
2022/09/19 06:49:08;;;;;;;4.38;2.10;;;21.10;51.00;;;;;;4897793;29;20284;-41
2022/09/19 06:51:41;;;;;;;4.10;2.13;;;21.10;50.90;;;;;;4898137;29;20280;-44
2022/09/19 06:54:12;;;;;;;3.22;2.17;;;21.10;50.80;;;;;;4897241;29;20212;-43
2022/09/19 06:56:43;;;;;;;2.83;2.13;;;21.10;50.80;;;;;;4896258;29;20208;-37
2022/09/19 06:59:14;;;;;;;4.63;2.00;;;21.00;50.80;;;;;;4897610;29;20240;-42
2022/09/19 07:01:46;;;;;;;3.67;2.50;;;21.00;50.90;;;;;;4898305;29;20296;-43
2022/09/19 07:04:16;;;;;;;6.05;2.63;;;21.00;50.90;;;;;;4897329;29;20225;-46
2022/09/19 07:06:49;;;;;;;4.50;2.28;;;21.00;50.90;;;;;;4897670;29;20211;-39
2022/09/19 07:09:20;;;;;;;3.42;1.90;;;21.00;50.90;;;;;;4897597;29;20917;-39
2022/09/19 07:11:56;;;;;;;3.80;1.95;;;20.90;50.90;;;;;;4879739;29;20212;-40
2022/09/19 07:14:27;;;;;;;3.35;2.20;;;20.90;50.90;;;;;;4894119;29;20658;-50
2022/09/19 07:16:58;;;;;;;3.90;2.13;;;20.90;50.90;;;;;;4896754;29;20228;-36
2022/09/19 07:19:29;;;;;;;3.65;2.20;;;20.90;50.90;;;;;;4897471;29;20724;-42
2022/09/19 07:22:02;;;;;;;3.13;2.00;;;20.90;50.90;;;;;;4895895;29;20602;-39
2022/09/19 07:24:33;;;;;;;4.38;2.25;;;20.90;50.90;;;;;;4897758;29;20197;-39
2022/09/19 07:27:03;;;;;;;3.33;2.05;;;20.90;50.90;;;;;;4896816;29;20228;-40
2022/09/19 07:29:34;;;;;;;3.75;2.13;;;20.80;50.80;;;;;;4897674;29;20554;-44
2022/09/19 07:32:05;;;;;;;3.63;2.10;;;20.80;50.90;;;;;;4897456;29;20216;-36
2022/09/19 07:34:36;;;;;;;3.97;2.30;;;20.80;51.00;;;;;;4896018;29;20196;-37
2022/09/19 07:37:08;;;;;;;3.28;2.17;;;20.80;51.00;;;;;;4896078;29;20697;-50
2022/09/19 07:39:39;;;;;;;2.67;2.03;;;20.80;51.00;;;;;;4895917;29;20615;-37
2022/09/19 07:42:10;;;;;;;7.50;2.47;;;20.70;51.00;;;;;;4876810;29;20599;-44
2022/09/19 07:44:40;;;;;;;3.58;1.80;;;20.70;50.90;;;;;;4875757;29;20662;-40
2022/09/19 07:47:29;;;;;;;4.35;1.98;;;20.70;50.90;;;;;;4875316;29;20217;-40
2022/09/19 07:50:00;;;;;;;5.43;2.40;;;20.70;50.90;;;;;;4876285;29;20202;-37
2022/09/19 07:52:33;;;;;;;5.45;2.13;;;20.70;50.90;;;;;;4875902;29;20210;-38
2022/09/19 07:55:03;;;;;;;3.78;2.03;;;20.70;51.00;;;;;;4875694;29;20206;-40
2022/09/19 07:57:34;;;;;;;3.97;2.50;;;20.70;51.00;;;;;;4877131;29;20233;-38
2022/09/19 08:00:05;;;;;;;3.50;2.05;;;20.70;51.00;;;;;;4876905;29;20585;-39
2022/09/19 08:02:36;;;;;;;4.28;2.13;;;20.60;51.00;;;;;;4876975;29;20584;-42
2022/09/19 08:05:07;;;;;;;3.40;2.10;;;20.60;51.00;;;;;;4876974;29;20201;-48
2022/09/19 08:07:39;;;;;;;3.08;2.08;;;20.60;51.00;;;;;;4876557;29;20709;-52
2022/09/19 08:10:11;;;;;;;4.75;2.05;;;20.60;51.00;;;;;;4878254;29;20206;-52
2022/09/19 08:12:43;;;;;;;3.22;1.85;;;20.60;51.10;;;;;;4858162;29;20206;-41
2022/09/19 08:15:15;;;;;;;3.08;2.00;;;20.50;51.10;;;;;;4858251;29;20206;-50
2022/09/19 08:17:56;;;;;;;6.15;2.47;;;20.50;51.10;;;;;;4857913;29;20230;-39
2022/09/19 08:20:27;;;;;;;4.35;2.05;;;20.50;51.20;;;;;;4858396;29;20465;-46
2022/09/19 08:23:05;;;;;;;4.18;2.13;;;20.50;51.20;;;;;;4858071;29;20706;-43
2022/09/19 08:25:37;;;;;;;3.55;2.03;;;20.40;51.00;;;;;;4875775;29;20225;-48
2022/09/19 08:28:08;;;;;;;2.58;2.17;;;20.50;51.20;;;;;;4876448;29;20221;-50
2022/09/19 08:30:41;;;;;;;3.28;1.88;;;20.40;51.10;;;;;;4875909;29;20193;-46
2022/09/19 08:33:13;;;;;;;4.28;2.10;;;20.40;51.10;;;;;;4857776;29;20202;-39
2022/09/19 08:35:44;;;;;;;2.42;1.80;;;20.40;51.10;;;;;;4857914;29;20210;-43
2022/09/19 08:38:16;;;;;;;3.53;2.10;;;20.40;51.10;;;;;;4857973;29;20316;-39
2022/09/19 08:41:00;;;;;;;3.75;1.90;;;20.40;51.20;;;;;;4876203;29;20213;-46
2022/09/19 08:43:39;;;;;;;2.55;1.90;;;20.30;51.10;;;;;;4876231;29;20229;-42
2022/09/19 08:46:17;;;;;;;2.60;1.77;;;20.30;51.00;;;;;;4876057;29;20205;-47
2022/09/19 08:49:02;;;;;;;4.07;1.90;;;20.30;51.10;;;;;;4876196;29;20694;-37
2022/09/19 08:51:36;;;;;;;2.72;1.98;;;20.30;51.10;;;;;;4875974;29;20654;-45
2022/09/19 08:54:14;;;;;;;3.17;1.60;;;20.30;51.20;;;;;;4872418;29;20621;-44
2022/09/19 08:56:46;;;;;;;2.72;1.90;;;20.30;51.10;;;;;;4875917;29;20205;-40
2022/09/19 08:59:20;;;;;;;2.80;1.38;;;20.20;51.10;;;;;;4876320;29;20209;-37
2022/09/19 09:01:53;;;;;;;2.90;2.03;;;20.20;51.20;;;;;;4876847;29;20205;-50
2022/09/19 09:04:30;;;;;;;2.97;0.93;;;20.20;50.80;;;;;;4876386;29;20601;-58
2022/09/19 09:07:18;;;;;;;1.65;0.82;;;20.10;47.10;;;;;;4875943;29;20225;-49
2022/09/19 09:10:05;;;;;;;2.92;1.15;;;20.00;45.30;;;;;;4875562;29;20205;-53
2022/09/19 09:12:44;;;;;;;2.95;0.80;;;19.90;45.80;;;;;;4876106;29;20201;-46
2022/09/19 09:15:24;;;;;;;2.28;1.10;;;19.80;46.70;;;;;;4876145;29;20231;-45
2022/09/19 09:18:20;;;;;;;1.08;0.70;;;19.80;47.10;;;;;;4877600;29;20221;-38
2022/09/19 09:20:55;;;;;;;1.75;1.00;;;19.70;47.40;;;;;;4882490;29;20233;-45
2022/09/19 09:23:28;;;;;;;2.00;0.90;;;19.70;47.60;;;;;;4882253;29;20231;-40
2022/09/19 09:26:05;;;;;;;2.15;0.95;;;19.70;47.80;;;;;;4882647;29;20199;-40
2022/09/19 09:28:44;;;;;;;2.95;0.90;;;19.70;47.90;;;;;;4883277;29;20282;-38
2022/09/19 09:31:24;;;;;;;1.83;1.17;;;19.70;47.90;;;;;;4890567;29;20209;-48
2022/09/19 09:33:59;;;;;;;2.75;1.15;;;19.70;48.10;;;;;;4885223;29;20205;-42
2022/09/19 09:36:35;;;;;;;1.58;0.90;;;19.70;48.20;;;;;;4901655;29;20267;-40
2022/09/19 09:39:16;;;;;;;1.65;1.05;;;19.70;48.30;;;;;;4896918;29;20200;-57
2022/09/19 09:41:52;;;;;;;2.25;1.10;;;19.70;48.40;;;;;;4883502;29;20212;-48
2022/09/19 09:44:44;;;;;;;2.15;1.10;;;19.70;48.50;;;;;;4888578;29;20720;-49
2022/09/19 09:47:26;;;;;;;2.35;0.90;;;19.60;48.40;;;;;;4901010;29;20720;-44
2022/09/19 09:50:04;;;;;;;2.30;1.17;;;19.60;48.60;;;;;;4882170;29;20202;-49
2022/09/19 09:52:43;;;;;;;2.70;1.08;;;19.60;48.70;;;;;;4880651;29;20204;-43
2022/09/19 09:58:24;;;;;;;3.88;1.20;;;19.60;48.70;;;;;;4901703;29;20796;-47
2022/09/19 10:04:03;;;;;;;1.95;1.00;;;19.60;48.80;;;;;;4901543;29;20958;-38
2022/09/19 10:06:38;;;;;;;2.17;0.88;;;19.60;48.90;;;;;;4901348;29;20674;-50
2022/09/19 10:09:14;;;;;;;3.85;1.35;;;19.60;49.00;;;;;;4901209;29;20573;-42
2022/09/19 10:11:50;;;;;;;1.80;1.25;;;19.60;49.10;;;;;;4883775;29;20228;-46
2022/09/19 10:14:25;;;;;;;3.70;1.48;;;19.60;49.20;;;;;;4885803;29;20616;-42
2022/09/19 10:17:01;;;;;;;4.38;1.48;;;19.60;49.20;;;;;;4882884;29;20203;-50
2022/09/19 10:19:36;;;;;;;3.10;1.60;;;19.50;49.20;;;;;;4887348;29;20193;-51
2022/09/19 10:22:07;;;;;;;4.90;1.55;;;19.50;49.30;;;;;;4901780;29;20286;-50
2022/09/19 10:24:50;;;;;;;4.32;1.90;;;19.50;49.30;;;;;;4900616;29;20228;-39
2022/09/19 10:27:23;;;;;;;3.60;1.77;;;19.50;49.40;;;;;;4863234;29;20229;-47
2022/09/19 10:30:02;;;;;;;4.05;1.75;;;19.50;49.40;;;;;;4877277;29;20200;-46
2022/09/19 10:32:37;;;;;;;5.07;1.90;;;19.50;49.30;;;;;;4898738;29;20661;-56
2022/09/19 10:35:30;;;;;;;3.75;1.85;;;19.50;49.40;;;;;;4898344;29;20387;-45
2022/09/19 10:38:06;;;;;;;4.80;2.05;;;19.50;50.00;;;;;;4878765;29;20221;-54
2022/09/19 10:40:37;;;;;;;3.20;1.50;;;19.50;49.50;;;;;;4882502;29;20600;-55
2022/09/19 10:43:07;;;;;;;4.30;1.58;;;19.50;49.60;;;;;;4878657;29;20615;-51
2022/09/19 10:45:48;;;;;;;4.20;1.90;;;19.40;49.60;;;;;;4891130;29;20656;-55
2022/09/19 10:48:27;;;;;;;3.00;1.60;;;19.50;49.70;;;;;;4897936;29;20231;-45
2022/09/19 10:50:59;;;;;;;4.47;1.77;;;19.50;49.70;;;;;;4898223;29;20196;-41
2022/09/19 10:53:32;;;;;;;3.67;1.63;;;19.50;49.70;;;;;;4897605;29;20241;-39
2022/09/19 10:56:07;;;;;;;4.70;1.75;;;19.40;49.80;;;;;;4876030;29;20206;-45
2022/09/19 10:58:43;;;;;;;5.50;1.92;;;19.40;49.80;;;;;;4860585;29;20772;-46
2022/09/19 11:01:26;;;;;;;4.03;1.67;;;19.40;49.80;;;;;;4892437;29;20196;-45
2022/09/19 11:04:05;;;;;;;4.82;1.77;;;19.40;49.80;;;;;;4897598;29;20236;-40
2022/09/19 11:06:36;;;;;;;3.53;1.80;;;19.40;49.80;;;;;;4897151;29;20205;-40
2022/09/19 11:09:28;;;;;;;4.40;1.70;;;19.40;49.80;;;;;;4897640;29;20205;-55
2022/09/19 11:12:06;;;;;;;4.45;2.03;;;19.40;50.00;;;;;;4860868;29;20659;-45
2022/09/19 11:14:41;;;;;;;3.13;1.60;;;19.40;50.00;;;;;;4866009;29;20197;-52
2022/09/19 11:17:30;;;;;;;3.28;1.65;;;19.30;50.10;;;;;;4897786;29;20592;-53
2022/09/19 11:20:24;;;;;;;3.60;1.50;;;19.30;50.10;;;;;;4891689;29;20220;-44
2022/09/19 11:23:28;;;;;;;4.35;1.65;;;19.30;50.10;;;;;;4897816;29;20695;-41
2022/09/19 11:26:09;;;;;;;3.22;1.50;;;19.30;50.10;;;;;;4897321;29;20211;-46
2022/09/19 11:28:49;;;;;;;3.95;1.65;;;19.30;50.10;;;;;;4897289;29;20760;-50
2022/09/19 11:31:44;;;;;;;5.13;1.73;;;19.30;50.10;;;;;;4897047;29;20337;-51
2022/09/19 11:34:30;;;;;;;4.38;1.77;;;19.30;50.10;;;;;;4897646;29;20741;-52
2022/09/19 11:37:13;;;;;;;3.45;1.65;;;19.30;50.10;;;;;;4869305;29;20213;-56
2022/09/19 11:40:01;;;;;;;4.50;1.67;;;19.30;50.10;;;;;;4878804;29;20201;-53
2022/09/19 11:42:41;;;;;;;2.63;1.45;;;19.20;50.20;;;;;;4878063;29;20206;-50
2022/09/19 11:45:16;;;;;;;3.40;1.60;;;19.20;50.20;;;;;;4883759;29;20224;-53
2022/09/19 11:48:18;;;;;;;2.15;1.30;;;19.20;50.30;;;;;;4896937;29;20315;-53
2022/09/19 11:51:03;;;;;;;3.30;1.60;;;19.20;50.30;;;;;;4866108;29;20205;-42
2022/09/19 11:53:49;;;;;;;4.20;1.70;;;19.20;50.40;;;;;;4896803;29;20213;-39
2022/09/19 11:56:39;;;;;;;3.75;1.60;;;19.10;50.40;;;;;;4887051;29;20212;-45
2022/09/19 11:59:24;;;;;;;2.90;1.58;;;19.10;50.40;;;;;;4897249;29;20205;-48
2022/09/19 12:02:07;;;;;;;3.65;1.50;;;19.10;50.40;;;;;;4897158;29;20215;-49
2022/09/19 12:04:48;;;;;;;3.95;1.45;;;19.10;50.30;;;;;;4896238;29;20280;-50
2022/09/19 12:07:36;;;;;;;4.78;2.00;;;19.10;50.30;;;;;;4896280;29;20217;-48
2022/09/19 12:10:15;;;;;;;3.45;1.60;;;19.10;50.30;;;;;;4885157;29;20205;-38
2022/09/19 12:12:49;;;;;;;2.75;1.63;;;19.10;50.40;;;;;;4896296;29;20207;-43
2022/09/19 12:15:24;;;;;;;2.88;1.33;;;19.10;50.50;;;;;;4896800;29;20208;-55
2022/09/19 12:18:01;;;;;;;3.20;1.67;;;19.10;50.60;;;;;;4896301;29;20228;-57
2022/09/19 12:20:35;;;;;;;5.95;1.98;;;19.00;50.50;;;;;;4886795;29;20200;-51
2022/09/19 12:26:03;;;;;;;3.10;1.63;;;19.00;50.60;;;;;;4896960;29;20200;-36
2022/09/19 12:28:37;;;;;;;4.22;1.48;;;19.00;50.60;;;;;;4895988;29;20717;-54
2022/09/19 12:31:13;;;;;;;3.22;1.80;;;19.00;50.60;;;;;;4896124;29;20230;-38
2022/09/19 12:33:51;;;;;;;3.33;1.80;;;19.00;50.60;;;;;;4896020;29;20609;-48
2022/09/19 12:36:30;;;;;;;3.88;1.75;;;19.00;50.60;;;;;;4896091;29;20204;-52
2022/09/19 12:39:08;;;;;;;3.38;1.63;;;19.00;50.60;;;;;;4884659;29;20210;-52
2022/09/19 12:41:48;;;;;;;3.60;1.65;;;19.00;50.60;;;;;;4891017;29;20207;-53
2022/09/19 12:44:26;;;;;;;4.22;1.70;;;18.90;50.60;;;;;;4895628;29;20225;-57
2022/09/19 12:47:04;;;;;;;3.53;1.58;;;18.90;50.70;;;;;;4895590;29;20200;-48
2022/09/19 12:49:42;;;;;;;4.13;1.70;;;18.90;50.70;;;;;;4895900;29;20693;-36
2022/09/19 12:52:18;;;;;;;3.97;1.92;;;18.90;50.70;;;;;;4896269;29;20688;-36
2022/09/19 12:54:58;;;;;;;3.55;1.52;;;18.80;50.70;;;;;;4896133;29;20906;-36
2022/09/19 12:57:36;;;;;;;5.18;1.80;;;18.80;50.80;;;;;;4894928;29;20217;-39
2022/09/19 13:00:10;;;;;;;1.75;1.30;;;18.80;50.80;;;;;;4895076;29;20473;-36
2022/09/19 13:02:44;;;;;;;3.03;1.60;;;18.80;50.80;;;;;;4895256;29;20705;-38
2022/09/19 13:05:22;;;;;;;2.90;1.63;;;18.80;50.80;;;;;;4888859;29;20229;-36
2022/09/19 13:07:55;;;;;;;3.35;1.88;;;18.80;50.80;;;;;;4875728;29;20290;-36
2022/09/19 13:10:36;;;;;;;2.95;1.60;;;18.80;50.80;;;;;;4875690;29;20289;-37
2022/09/19 13:13:14;;;;;;;3.97;1.77;;;18.80;50.80;;;;;;4876052;29;20206;-39
2022/09/19 13:15:49;;;;;;;2.78;1.30;;;18.80;50.80;;;;;;4875981;29;20208;-36
2022/09/19 13:24:04;;;;;;;2.35;1.50;;;18.70;50.90;;;;;;4875529;29;20361;-37
2022/09/19 13:26:38;;;;;;;3.67;1.88;;;18.70;51.00;;;;;;4875928;29;20201;-36
2022/09/19 13:29:31;;;;;;;2.90;1.60;;;18.60;51.00;;;;;;4876334;29;20204;-42
2022/09/19 13:32:03;;;;;;;3.63;1.67;;;18.70;51.00;;;;;;4875868;29;20853;-47
2022/09/19 13:34:43;;;;;;;3.78;1.73;;;18.60;51.00;;;;;;4876093;29;20626;-35
2022/09/19 13:38:04;;;;;;;3.10;1.83;;;18.60;51.00;;;;;;4857650;29;20221;-36
2022/09/19 13:40:48;;;;;;;3.95;1.80;;;18.60;51.00;;;;;;4865999;29;20212;-36
2022/09/19 13:43:38;;;;;;;3.30;2.10;;;18.60;51.00;;;;;;4876138;29;20716;-36
2022/09/19 13:46:15;;;;;;;3.35;1.52;;;18.60;51.00;;;;;;4875437;29;20217;-38
2022/09/19 13:48:52;;;;;;;2.85;1.65;;;18.60;51.00;;;;;;4875439;29;20217;-37
2022/09/19 13:51:39;;;;;;;2.72;1.85;;;18.50;51.00;;;;;;4876045;29;20217;-39
2022/09/19 13:54:37;;;;;;;3.88;2.10;;;18.50;51.00;;;;;;4875735;29;20292;-37
2022/09/19 13:57:12;;;;;;;2.10;1.30;;;18.50;51.10;;;;;;4875774;29;20248;-36